バクー の空港の天気 - METARとTAF

ヘイダル・アリエフ国際空港(バクー) ( UBBB / BAK ) - アゼルバイジャン バクー
飛行場実況気象(Metar)
観測時間06/24 13:30 AZT (06/24 09:30 UTC)
風向・風速東南東 4m/s
視程10km以上
天気現象
なし
気温38℃
湿度24%
気圧1009hPa
METARUBBB 240930Z 12008KT CAVOK 38/14 Q1009 R88/D NOSIG
過去の天気等 Google飛行場航空写真 Wunderground天気予報

過去48時間のMETAR

飛行場予報(TAF)
発表時間: 6/24 09:11 AZT (6/24 05:11 UTC)
予報対象時間: 24日10時 AZT ~ 25日10時 AZT
風向・風速北北東 4m/s
視程10km以上
なし
24日11時 AZT ~ 24日13時 AZT に徐々に
風向・風速南南東 5m/s
24日13時 AZT ~ 24日19時 AZT に一時的に
風向・風速東 4m/s
24日19時 AZT ~ 24日21時 AZT に徐々に
風向・風速北 6m/s
TAF UBBB 240511Z 2406/2506 02008KT CAVOK TX37/2410Z TN23/2502Z
BECMG 2407/2409 15010KT
TEMPO 2409/2415 10008KT
BECMG 2415/2417 36012KT